createdAt,value
2018-03-24T00:00:47.556Z,8
2018-03-24T00:03:14.470Z,8
2018-03-24T00:05:41.381Z,8
2018-03-24T00:08:08.299Z,9
2018-03-24T00:10:35.212Z,8
2018-03-24T00:13:02.136Z,9
2018-03-24T00:15:29.046Z,8
2018-03-24T00:17:55.964Z,8
2018-03-24T00:20:22.871Z,8
2018-03-24T00:22:49.783Z,8
2018-03-24T00:25:16.701Z,9
2018-03-24T00:27:43.615Z,8
2018-03-24T00:30:10.554Z,8
2018-03-24T00:32:37.467Z,8
2018-03-24T00:35:04.383Z,8
2018-03-24T00:37:31.304Z,8
2018-03-24T00:39:58.231Z,8
2018-03-24T00:42:25.158Z,8
2018-03-24T00:44:52.072Z,8
2018-03-24T00:47:19.010Z,8
2018-03-24T00:49:45.920Z,8
2018-03-24T00:52:12.830Z,8
2018-03-24T00:54:39.759Z,8
2018-03-24T00:57:06.667Z,8
2018-03-24T00:59:33.579Z,8
2018-03-24T01:02:00.492Z,7
2018-03-24T01:04:27.410Z,8
2018-03-24T01:06:54.327Z,8
2018-03-24T01:09:21.244Z,7
2018-03-24T01:11:48.182Z,8
2018-03-24T01:14:15.094Z,8
2018-03-24T01:16:42.006Z,8
2018-03-24T01:19:08.927Z,8
2018-03-24T01:21:35.839Z,8
2018-03-24T01:24:02.759Z,8
2018-03-24T01:26:29.667Z,8
2018-03-24T01:28:56.606Z,8
2018-03-24T01:31:23.518Z,8
2018-03-24T01:33:50.431Z,7
2018-03-24T01:36:17.352Z,8
2018-03-24T01:38:44.263Z,8
2018-03-24T01:41:11.202Z,7
2018-03-24T01:43:38.113Z,7
2018-03-24T01:46:05.027Z,7
2018-03-24T01:48:31.950Z,7
2018-03-24T01:50:58.866Z,8
2018-03-24T01:53:25.784Z,7
2018-03-24T01:55:52.697Z,7
2018-03-24T01:58:19.633Z,7
2018-03-24T02:00:46.545Z,8
2018-03-24T02:03:13.468Z,7
2018-03-24T02:05:40.407Z,8
2018-03-24T02:08:07.317Z,7
2018-03-24T02:10:34.231Z,7
2018-03-24T02:13:01.152Z,7
2018-03-24T02:15:28.075Z,7
2018-03-24T02:17:54.988Z,7
2018-03-24T02:20:21.904Z,7
2018-03-24T02:22:48.846Z,7
2018-03-24T02:25:15.770Z,7
2018-03-24T02:27:42.684Z,8
2018-03-24T02:30:09.637Z,7
2018-03-24T02:32:36.549Z,8
2018-03-24T02:35:03.470Z,7
2018-03-24T02:37:30.387Z,7
2018-03-24T02:39:57.304Z,7
2018-03-24T02:42:24.257Z,7
2018-03-24T02:44:51.169Z,7
2018-03-24T02:47:18.084Z,6
2018-03-24T02:49:45.000Z,7
2018-03-24T02:52:11.918Z,7
2018-03-24T02:54:38.835Z,6
2018-03-24T02:57:05.753Z,7
2018-03-24T02:59:32.691Z,7
2018-03-24T03:01:59.603Z,7
2018-03-24T03:04:26.510Z,7
2018-03-24T03:06:53.426Z,6
2018-03-24T03:09:20.343Z,7
2018-03-24T03:11:47.282Z,7
2018-03-24T03:14:14.206Z,6
2018-03-24T03:16:41.124Z,7
2018-03-24T03:19:08.048Z,7
2018-03-24T03:21:34.961Z,7
2018-03-24T03:24:01.883Z,6
2018-03-24T03:26:28.793Z,6
2018-03-24T03:28:55.737Z,7
2018-03-24T03:31:22.650Z,7
2018-03-24T03:33:49.557Z,6
2018-03-24T03:36:16.482Z,6
2018-03-24T03:38:43.394Z,7
2018-03-24T03:41:10.337Z,6
2018-03-24T03:43:37.246Z,7
2018-03-24T03:46:04.158Z,6
2018-03-24T03:48:31.082Z,6
2018-03-24T03:50:57.995Z,6
2018-03-24T03:53:24.912Z,7
2018-03-24T03:55:51.831Z,6
2018-03-24T03:58:18.765Z,6
2018-03-24T04:00:45.684Z,6
2018-03-24T04:03:12.605Z,6
2018-03-24T04:05:39.540Z,6
2018-03-24T04:08:06.450Z,6
2018-03-24T04:10:33.364Z,7
2018-03-24T04:13:00.291Z,6
2018-03-24T04:15:27.207Z,6
2018-03-24T04:17:54.124Z,6
2018-03-24T04:20:21.043Z,6
2018-03-24T04:22:47.978Z,6
2018-03-24T04:25:14.891Z,6
2018-03-24T04:27:41.806Z,6
2018-03-24T04:30:08.756Z,6
2018-03-24T04:32:35.670Z,6
2018-03-24T04:35:02.578Z,6
2018-03-24T04:37:29.497Z,6
2018-03-24T04:39:56.410Z,6
2018-03-24T04:42:23.327Z,5
2018-03-24T04:44:50.277Z,6
2018-03-24T04:47:17.189Z,6
2018-03-24T04:49:44.100Z,6
2018-03-24T04:52:11.020Z,6
2018-03-24T04:54:37.943Z,6
2018-03-24T04:57:04.850Z,6
2018-03-24T04:59:31.770Z,6
2018-03-24T05:01:58.694Z,6
2018-03-24T05:04:25.648Z,6
2018-03-24T05:06:52.534Z,6
2018-03-24T05:09:19.448Z,6
2018-03-24T05:11:46.367Z,5
2018-03-24T05:14:13.288Z,6
2018-03-24T05:16:40.212Z,5
2018-03-24T05:19:07.130Z,6
2018-03-24T05:21:34.046Z,6
2018-03-24T05:24:00.960Z,5
2018-03-24T05:26:27.906Z,6
2018-03-24T05:28:54.844Z,5
2018-03-24T05:31:21.744Z,6
2018-03-24T05:33:48.658Z,6
2018-03-24T05:36:15.603Z,5
2018-03-24T05:38:42.519Z,5
2018-03-24T05:41:09.429Z,5
2018-03-24T05:43:36.355Z,5
2018-03-24T05:46:03.272Z,5
2018-03-24T05:48:30.197Z,5
2018-03-24T05:50:57.106Z,6
2018-03-24T05:53:24.019Z,5
2018-03-24T05:55:50.939Z,5
2018-03-24T05:58:17.859Z,6
2018-03-24T06:00:44.803Z,6
2018-03-24T06:03:11.758Z,5
2018-03-24T06:05:38.631Z,5
2018-03-24T06:08:05.551Z,5
2018-03-24T06:10:32.500Z,5
2018-03-24T06:12:59.385Z,5
2018-03-24T06:15:26.295Z,5
2018-03-24T06:17:53.245Z,5
2018-03-24T06:20:20.161Z,5
2018-03-24T06:22:47.079Z,5
2018-03-24T06:25:14.007Z,5
2018-03-24T06:27:40.918Z,5
2018-03-24T06:30:07.862Z,5
2018-03-24T06:32:34.779Z,5
2018-03-24T06:35:01.690Z,5
2018-03-24T06:37:28.612Z,5
2018-03-24T06:39:55.527Z,5
2018-03-24T06:42:22.442Z,6
2018-03-24T06:44:49.410Z,5
2018-03-24T06:47:16.271Z,5
2018-03-24T06:49:43.186Z,5
2018-03-24T06:52:10.101Z,5
2018-03-24T06:54:37.021Z,5
2018-03-24T06:57:03.934Z,5
2018-03-24T06:59:30.851Z,5
2018-03-24T07:01:57.781Z,5
2018-03-24T07:04:24.679Z,5
2018-03-24T07:06:51.604Z,5
2018-03-24T07:09:18.523Z,5
2018-03-24T07:11:45.458Z,5
2018-03-24T07:14:12.383Z,5
2018-03-24T07:16:39.293Z,5
2018-03-24T07:19:06.211Z,5
2018-03-24T07:21:33.123Z,5
2018-03-24T07:24:00.048Z,5
2018-03-24T07:26:26.964Z,6
2018-03-24T07:28:53.886Z,6
2018-03-24T07:31:20.849Z,6
2018-03-24T07:33:47.739Z,6
2018-03-24T07:36:14.689Z,6
2018-03-24T07:38:41.615Z,7
2018-03-24T07:41:08.524Z,7
2018-03-24T07:43:35.454Z,7
2018-03-24T07:46:02.372Z,7
2018-03-24T07:48:29.299Z,8
2018-03-24T07:50:56.204Z,7
2018-03-24T07:53:23.127Z,7
2018-03-24T07:55:50.039Z,7
2018-03-24T07:58:16.982Z,7
2018-03-24T08:00:43.891Z,8
2018-03-24T08:03:10.804Z,8
2018-03-24T08:05:37.772Z,8
2018-03-24T08:08:04.703Z,8
2018-03-24T08:10:31.619Z,8
2018-03-24T08:12:58.542Z,9
2018-03-24T08:15:25.453Z,8
2018-03-24T08:17:52.378Z,9
2018-03-24T08:20:19.296Z,9
2018-03-24T08:22:46.973Z,9
2018-03-24T08:25:13.860Z,10
2018-03-24T08:27:40.786Z,9
2018-03-24T08:30:07.766Z,10
2018-03-24T08:32:34.675Z,9
2018-03-24T08:35:01.657Z,10
2018-03-24T08:37:28.601Z,9
2018-03-24T08:39:55.502Z,10
2018-03-24T08:42:22.428Z,9
2018-03-24T08:44:49.349Z,10
2018-03-24T08:47:16.277Z,10
2018-03-24T08:49:43.196Z,10
2018-03-24T08:52:10.149Z,10
2018-03-24T08:54:37.071Z,10
2018-03-24T08:57:03.996Z,11
2018-03-24T08:59:30.915Z,10
2018-03-24T09:01:57.835Z,10
2018-03-24T09:04:24.765Z,10
2018-03-24T09:06:51.687Z,10
2018-03-24T09:09:18.623Z,11
2018-03-24T09:11:45.554Z,12
2018-03-24T09:14:12.488Z,11
2018-03-24T09:16:39.456Z,10
2018-03-24T09:19:06.368Z,12
2018-03-24T09:21:33.289Z,12
2018-03-24T09:24:00.228Z,12
2018-03-24T09:26:27.150Z,12
2018-03-24T09:28:54.076Z,12
2018-03-24T09:31:20.997Z,12
2018-03-24T09:33:47.925Z,12
2018-03-24T09:36:14.846Z,15
2018-03-24T09:38:41.771Z,13
2018-03-24T09:41:08.694Z,14
2018-03-24T09:43:35.625Z,13
2018-03-24T09:46:02.552Z,13
2018-03-24T09:48:29.469Z,14
2018-03-24T09:50:56.397Z,13
2018-03-24T09:53:23.316Z,13
2018-03-24T09:55:50.270Z,14
2018-03-24T09:58:17.195Z,13
2018-03-24T10:00:44.114Z,14
2018-03-24T10:03:11.046Z,14
2018-03-24T10:05:37.964Z,13
2018-03-24T10:08:04.929Z,14
2018-03-24T10:10:31.849Z,15
2018-03-24T10:12:58.767Z,14
2018-03-24T10:15:25.698Z,13
2018-03-24T10:17:52.615Z,14
2018-03-24T10:20:19.543Z,13
2018-03-24T10:22:46.461Z,14
2018-03-24T10:25:13.389Z,15
2018-03-24T10:27:40.308Z,14
2018-03-24T10:30:07.300Z,13
2018-03-24T10:32:36.906Z,14
2018-03-24T10:35:09.919Z,14
2018-03-24T10:37:55.125Z,15
2018-03-24T10:40:22.047Z,15
2018-03-24T10:43:07.080Z,15
2018-03-24T10:45:34.000Z,15
2018-03-24T10:48:00.925Z,15
2018-03-24T10:50:27.846Z,15
2018-03-24T10:52:54.796Z,15
2018-03-24T10:55:21.727Z,15
2018-03-24T10:57:48.645Z,15
2018-03-24T11:00:15.593Z,15
2018-03-24T11:02:42.516Z,14
2018-03-24T11:05:09.442Z,15
2018-03-24T11:07:36.364Z,15
2018-03-24T11:10:03.283Z,15
2018-03-24T11:12:30.208Z,15
2018-03-24T11:14:57.133Z,15
2018-03-24T11:17:24.063Z,15
2018-03-24T11:19:50.991Z,15
2018-03-24T11:22:17.932Z,16
2018-03-24T11:24:44.857Z,15
2018-03-24T11:27:11.773Z,16
2018-03-24T11:29:38.695Z,15
2018-03-24T11:32:05.619Z,15
2018-03-24T11:34:32.690Z,14
2018-03-24T11:36:59.577Z,15
2018-03-24T11:39:26.498Z,15
2018-03-24T11:41:53.442Z,16
2018-03-24T11:44:20.361Z,16
2018-03-24T11:46:47.283Z,17
2018-03-24T11:49:14.213Z,18
2018-03-24T11:51:41.138Z,18
2018-03-24T11:54:08.078Z,18
2018-03-24T11:56:34.997Z,20
2018-03-24T11:59:01.923Z,19
2018-03-24T12:01:28.849Z,18
2018-03-24T12:03:55.773Z,19
2018-03-24T12:06:22.698Z,19
2018-03-24T12:08:49.629Z,19
2018-03-24T12:11:16.550Z,19
2018-03-24T12:13:43.477Z,18
2018-03-24T12:16:10.400Z,18
2018-03-24T12:18:37.337Z,18
2018-03-24T12:21:04.258Z,19
2018-03-24T12:23:31.181Z,18
2018-03-24T12:25:58.109Z,18
2018-03-24T12:28:25.031Z,18
2018-03-24T12:30:51.955Z,19
2018-03-24T12:33:18.879Z,18
2018-03-24T12:35:45.820Z,17
2018-03-24T12:38:12.745Z,18
2018-03-24T12:40:39.664Z,17
2018-03-24T12:43:06.613Z,19
2018-03-24T12:45:33.520Z,19
2018-03-24T12:48:00.450Z,18
2018-03-24T12:50:27.366Z,18
2018-03-24T12:52:54.293Z,18
2018-03-24T12:55:21.222Z,18
2018-03-24T12:57:48.142Z,17
2018-03-24T13:00:15.093Z,17
2018-03-24T13:02:42.029Z,17
2018-03-24T13:05:08.951Z,18
2018-03-24T13:07:35.873Z,21
2018-03-24T13:10:02.801Z,21
2018-03-24T13:12:29.731Z,20
2018-03-24T13:14:56.661Z,20
2018-03-24T13:17:23.639Z,21
2018-03-24T13:19:50.587Z,20
2018-03-24T13:22:17.492Z,20
2018-03-24T13:24:44.429Z,21
2018-03-24T13:27:11.347Z,20
2018-03-24T13:29:38.276Z,19
2018-03-24T13:32:05.204Z,19
2018-03-24T13:34:32.142Z,20
2018-03-24T13:36:59.069Z,19
2018-03-24T13:44:36.070Z,19
2018-03-24T13:47:02.989Z,19
2018-03-24T13:49:29.918Z,19
2018-03-24T13:51:56.833Z,19
2018-03-24T13:54:23.774Z,19
2018-03-24T13:56:50.694Z,20
2018-03-24T13:59:17.624Z,19
2018-03-24T14:01:44.543Z,19
2018-03-24T14:04:11.461Z,18
2018-03-24T14:06:38.401Z,18
2018-03-24T14:09:05.325Z,19
2018-03-24T14:11:32.241Z,19
2018-03-24T14:13:59.172Z,19
2018-03-24T14:16:26.093Z,18
2018-03-24T14:18:53.049Z,18
2018-03-24T14:21:19.976Z,19
2018-03-24T14:23:46.899Z,19
2018-03-24T14:26:13.834Z,19
2018-03-24T14:28:40.755Z,19
2018-03-24T14:31:07.711Z,20
2018-03-24T14:33:34.669Z,20
2018-03-24T14:36:01.591Z,20
2018-03-24T14:38:28.508Z,19
2018-03-24T14:40:55.455Z,20
2018-03-24T14:43:22.407Z,20
2018-03-24T14:45:49.297Z,20
2018-03-24T14:48:19.077Z,22
2018-03-24T14:50:45.992Z,22
2018-03-24T14:53:12.911Z,22
2018-03-24T14:55:39.838Z,22
2018-03-24T14:58:06.755Z,22
2018-03-24T15:05:41.483Z,22
2018-03-24T15:08:08.421Z,23
2018-03-24T15:10:35.346Z,22
2018-03-24T15:13:02.289Z,22
2018-03-24T15:15:29.208Z,22
2018-03-24T15:17:56.127Z,23
2018-03-24T15:20:23.058Z,22
2018-03-24T15:22:49.975Z,22
2018-03-24T15:25:16.925Z,22
2018-03-24T15:27:43.852Z,21
2018-03-24T15:30:10.761Z,23
2018-03-24T15:32:37.699Z,23
2018-03-24T15:35:04.620Z,23
2018-03-24T15:37:31.545Z,22
2018-03-24T15:39:58.469Z,21
2018-03-24T15:42:25.394Z,21
2018-03-24T15:44:52.317Z,22
2018-03-24T15:47:19.282Z,21
2018-03-24T15:49:46.205Z,22
2018-03-24T15:52:13.135Z,22
2018-03-24T15:54:40.060Z,24
2018-03-24T15:57:06.977Z,23
2018-03-24T15:59:33.927Z,23
2018-03-24T16:02:00.863Z,23
2018-03-24T16:04:27.765Z,23
2018-03-24T16:06:54.688Z,22
2018-03-24T16:09:21.611Z,23
2018-03-24T16:11:48.574Z,23
2018-03-24T16:14:15.492Z,23
2018-03-24T16:16:42.414Z,23
2018-03-24T16:19:09.341Z,23
2018-03-24T16:21:36.269Z,22
2018-03-24T16:24:03.194Z,23
2018-03-24T16:26:30.117Z,23
2018-03-24T16:28:57.064Z,22
2018-03-24T16:31:23.979Z,23
2018-03-24T16:33:52.150Z,22
2018-03-24T16:36:19.096Z,22
2018-03-24T16:38:46.025Z,22
2018-03-24T16:41:12.937Z,22
2018-03-24T16:43:39.864Z,21
2018-03-24T16:46:06.781Z,21
2018-03-24T16:48:33.704Z,21
2018-03-24T16:51:00.626Z,21
2018-03-24T16:53:27.577Z,21
2018-03-24T16:55:54.492Z,20
2018-03-24T16:58:21.411Z,21
2018-03-24T17:00:48.471Z,21
2018-03-24T17:03:15.396Z,20
2018-03-24T17:05:42.321Z,20
2018-03-24T17:08:09.249Z,20
2018-03-24T17:10:36.171Z,20
2018-03-24T17:13:03.104Z,19
2018-03-24T17:15:30.020Z,20
2018-03-24T17:17:56.969Z,19
2018-03-24T17:20:23.888Z,19
2018-03-24T17:22:50.832Z,19
2018-03-24T17:25:17.767Z,20
2018-03-24T17:27:44.686Z,19
2018-03-24T17:30:11.636Z,18
2018-03-24T17:32:38.578Z,19
2018-03-24T17:35:05.503Z,19
2018-03-24T17:37:32.430Z,18
2018-03-24T17:39:59.349Z,18
2018-03-24T17:42:26.281Z,18
2018-03-24T17:44:53.210Z,17
2018-03-24T17:47:20.166Z,18
2018-03-24T17:49:47.084Z,18
2018-03-24T17:52:14.013Z,17
2018-03-24T17:54:40.942Z,19
2018-03-24T17:57:07.876Z,17
2018-03-24T17:59:34.820Z,17
2018-03-24T18:02:02.498Z,17
2018-03-24T18:04:29.350Z,17
2018-03-24T18:06:57.782Z,17
2018-03-24T18:09:24.620Z,17
2018-03-24T18:11:51.590Z,17
2018-03-24T18:14:18.647Z,18
2018-03-24T18:16:45.538Z,18
2018-03-24T18:19:12.466Z,18
2018-03-24T18:21:39.385Z,18
2018-03-24T18:24:06.322Z,18
2018-03-24T18:26:33.246Z,18
2018-03-24T18:29:00.188Z,18
2018-03-24T18:31:27.127Z,17
2018-03-24T18:33:54.041Z,18
2018-03-24T18:36:20.991Z,17
2018-03-24T18:38:47.909Z,17
2018-03-24T18:41:14.834Z,17
2018-03-24T18:43:41.761Z,17
2018-03-24T18:46:08.686Z,16
2018-03-24T18:48:35.617Z,16
2018-03-24T18:51:02.553Z,16
2018-03-24T18:53:29.533Z,17
2018-03-24T18:55:56.426Z,16
2018-03-24T18:58:23.355Z,16
2018-03-24T19:00:50.307Z,17
2018-03-24T19:03:17.227Z,16
2018-03-24T19:05:44.159Z,16
2018-03-24T19:08:11.446Z,16
2018-03-24T19:10:38.310Z,15
2018-03-24T19:13:05.261Z,15
2018-03-24T19:15:32.183Z,15
2018-03-24T19:17:59.100Z,15
2018-03-24T19:20:26.033Z,14
2018-03-24T19:22:52.952Z,15
2018-03-24T19:25:19.881Z,14
2018-03-24T19:27:46.805Z,15
2018-03-24T19:30:13.771Z,14
2018-03-24T19:32:40.714Z,15
2018-03-24T19:35:07.663Z,15
2018-03-24T19:37:34.584Z,14
2018-03-24T19:40:01.508Z,14
2018-03-24T19:42:28.439Z,14
2018-03-24T19:44:55.368Z,15
2018-03-24T19:47:22.317Z,14
2018-03-24T19:49:49.253Z,14
2018-03-24T19:52:16.173Z,15
2018-03-24T19:54:43.129Z,14
2018-03-24T19:57:10.060Z,14
2018-03-24T19:59:37.000Z,14
2018-03-24T20:02:03.932Z,14
2018-03-24T20:04:30.853Z,13
2018-03-24T20:06:57.801Z,14
2018-03-24T20:09:24.727Z,13
2018-03-24T20:11:51.662Z,13
2018-03-24T20:14:18.608Z,14
2018-03-24T20:19:20.858Z,14
2018-03-24T20:21:47.810Z,14
2018-03-24T20:24:14.764Z,13
2018-03-24T20:26:41.689Z,14
2018-03-24T20:34:59.113Z,15
2018-03-24T20:37:26.049Z,14
2018-03-24T20:39:52.974Z,14
2018-03-24T20:42:19.953Z,15
2018-03-24T20:44:46.859Z,15
2018-03-24T20:47:13.780Z,14
2018-03-24T20:49:40.706Z,14
2018-03-24T20:52:07.629Z,14
2018-03-24T20:54:34.582Z,14
2018-03-24T20:57:01.503Z,14
2018-03-24T20:59:28.451Z,13
2018-03-24T21:01:55.391Z,14
2018-03-24T21:04:22.310Z,14
2018-03-24T21:06:49.261Z,13
2018-03-24T21:09:16.176Z,13
2018-03-24T21:11:43.097Z,13
2018-03-24T21:14:10.026Z,13
2018-03-24T21:16:36.948Z,13
2018-03-24T21:19:03.897Z,13
2018-03-24T21:21:30.822Z,13
2018-03-24T21:23:57.761Z,13
2018-03-24T21:26:24.675Z,13
2018-03-24T21:28:51.611Z,14
2018-03-24T21:31:18.549Z,13
2018-03-24T21:33:45.509Z,14
2018-03-24T21:36:12.419Z,14
2018-03-24T21:38:39.347Z,13
2018-03-24T21:41:06.264Z,12
2018-03-24T21:43:33.194Z,12
2018-03-24T21:46:00.115Z,13
2018-03-24T21:48:27.039Z,12
2018-03-24T21:50:53.963Z,13
2018-03-24T21:53:20.970Z,12
2018-03-24T21:55:47.853Z,12
2018-03-24T21:58:14.777Z,12
2018-03-24T22:00:41.739Z,12
2018-03-24T22:03:08.655Z,13
2018-03-24T22:05:35.572Z,11
2018-03-24T22:08:02.503Z,12
2018-03-24T22:10:29.426Z,13
2018-03-24T22:12:56.415Z,12
2018-03-24T22:15:23.285Z,11
2018-03-24T22:17:50.262Z,11
2018-03-24T22:20:17.173Z,12
2018-03-24T22:22:44.142Z,11
2018-03-24T22:25:11.057Z,12
2018-03-24T22:27:37.981Z,12
2018-03-24T22:30:05.748Z,12
2018-03-24T22:32:32.713Z,12
2018-03-24T22:34:59.605Z,11
2018-03-24T22:37:26.539Z,12
2018-03-24T22:39:53.464Z,12
2018-03-24T22:42:20.416Z,11
2018-03-24T22:44:47.342Z,11
2018-03-24T22:47:14.266Z,12
2018-03-24T22:49:41.196Z,12
2018-03-24T22:52:08.154Z,12
2018-03-24T22:54:35.039Z,12
2018-03-24T22:57:01.977Z,11
2018-03-24T22:59:28.932Z,11
2018-03-24T23:01:55.848Z,11
2018-03-24T23:04:22.782Z,11
2018-03-24T23:06:49.728Z,11
2018-03-24T23:09:16.649Z,11
2018-03-24T23:11:43.569Z,11
2018-03-24T23:14:10.507Z,11
2018-03-24T23:16:37.433Z,11
2018-03-24T23:19:04.362Z,11
2018-03-24T23:21:31.285Z,11
2018-03-24T23:23:58.235Z,10
2018-03-24T23:26:25.156Z,11
2018-03-24T23:28:52.100Z,11
2018-03-24T23:31:19.028Z,11
2018-03-24T23:33:45.946Z,10
2018-03-24T23:36:12.910Z,11
2018-03-24T23:38:39.831Z,11
2018-03-24T23:41:06.756Z,10
2018-03-24T23:43:33.684Z,10
2018-03-24T23:46:00.599Z,10
2018-03-24T23:48:27.528Z,10
2018-03-24T23:50:54.440Z,10
2018-03-24T23:53:21.400Z,10
2018-03-24T23:55:48.326Z,11
2018-03-24T23:58:15.251Z,11
